Weather forecast for 3. Switzerland Disentis

Paragliding World Cup, 1128 m
N46.705, E8.855


Sounding

Red line — air temperature ˚C.
Blue line — thermal bubble temperature ˚C.
Green line — dew point temperature ˚C.
Wind speed is in meters per second.

Table forecast

GFS 0.25˚ model

temp. wind gust humid. clouds prec. press. hpbl
Mon14 00:00 7 74.0 ene 1 1 94 0 0.0 1025 12
03:00 5 127.0 se 1 1 92 5 0.0 1024 12
06:00 5 151.0 sse 2 1 78 7 0.0 1023 13
09:00 12 217.0 sw 0 1 56 5 0.0 1022 98
12:00 16 359.0 n 2 2 37 5 0.0 1020 811
15:00 18 352.0 n 3 2 38 5 0.0 1019 1303
18:00 18 343.0 nnw 3 3 46 3 0.0 1019 1246
21:00 14 337.0 nnw 2 3 75 4 0.0 1020 160
 
Tue15 00:00 7 197.0 ssw 0 1 92 0 0.0 1022 11
03:00 6 308.0 nw 0 1 83 0 0.0 1021 11
06:00 5 197.0 ssw 1 1 76 1 0.0 1021 11
09:00 12 222.0 sw 0 0 47 5 0.0 1020 137
12:00 17 335.0 nnw 1 1 31 5 0.0 1019 1033
15:00 19 344.0 nnw 3 2 36 7 0.0 1018 1713
18:00 18 341.0 nnw 4 2 52 89 0.0 1018 1379
21:00 14 342.0 nnw 2 2 73 97 0.0 1020 200
 
Wed16 00:00 8 35.0 ne 0 1 88 100 0.0 1021 11
03:00 7 181.0 s 1 1 88 85 0.0 1020 13
06:00 7 182.0 s 0 1 88 100 0.0 1019 11
09:00 13 324.0 nw 1 1 70 16 0.0 1018 205
12:00 17 349.0 n 1 1 48 82 0.0 1016 1311
15:00 19 357.0 n 2 2 44 99 0.1 1014 2101
18:00 16 322.0 nw 1 1 71 100 1.3 1016 251
21:00 14 163.0 sse 1 1 84 100 3.6 1017 71
 
Thu17 00:00 10 168.0 sse 3 3 96 100 0.7 1018 59
03:00 11 175.0 s 3 3 95 100 0.8 1018 140
06:00 10 177.0 s 3 3 95 100 0.0 1018 58
09:00 12 174.0 s 3 3 91 81 0.0 1018 240
12:00 16 161.0 sse 2 2 71 100 0.6 1017 812
15:00 18 157.0 sse 3 2 61 100 1.3 1016 1258
18:00 17 160.0 sse 3 3 65 100 1.0 1016 1075
21:00 13 172.0 s 4 5 83 74 1.4 1017 367
 
Fri18 00:00 11 167.0 sse 4 5 91 72 0.2 1019 211
03:00 9 171.0 s 3 3 96 96 0.3 1019 85
06:00 10 165.0 sse 3 3 94 98 0.0 1019 153
09:00 11 165.0 sse 3 4 85 57 0.1 1019 290
12:00 15 166.0 sse 3 3 70 33 1.0 1018 751
15:00 17 157.0 sse 3 3 59 22 2.1 1017 1419
18:00 16 167.0 sse 3 3 64 30 1.1 1018 1132
21:00 14 166.0 sse 3 3 76 67 1.4 1019 423
 

0.013 s